createdAt,value
2022-10-12T00:00:46.214Z,96.13
2022-10-12T00:03:14.121Z,95.96
2022-10-12T00:05:41.972Z,96.23
2022-10-12T00:08:10.012Z,96.11
2022-10-12T00:10:41.357Z,96.13
2022-10-12T00:13:11.743Z,95.67
2022-10-12T00:15:40.224Z,96.38
2022-10-12T00:18:09.025Z,96.12
2022-10-12T00:20:37.003Z,96.05
2022-10-12T00:23:05.055Z,96.30
2022-10-12T00:25:32.959Z,96.23
2022-10-12T00:28:00.865Z,96.25
2022-10-12T00:30:30.584Z,96.22
2022-10-12T00:32:58.684Z,96.11
2022-10-12T00:35:28.987Z,96.37
2022-10-12T00:37:57.823Z,96.22
2022-10-12T00:40:25.703Z,96.18
2022-10-12T00:42:53.595Z,96.65
2022-10-12T00:45:21.576Z,96.19
2022-10-12T00:47:53.341Z,95.97
2022-10-12T00:50:25.934Z,96.03
2022-10-12T00:52:58.476Z,96.14
2022-10-12T00:55:29.993Z,96.12
2022-10-12T00:57:58.311Z,96.34
2022-10-12T01:00:26.420Z,96.10
2022-10-12T01:02:55.883Z,96.34
2022-10-12T01:05:24.765Z,95.98
2022-10-12T01:07:52.653Z,95.75
2022-10-12T01:10:20.719Z,95.90
2022-10-12T01:12:50.667Z,96.27
2022-10-12T01:15:18.713Z,95.94
2022-10-12T01:17:55.082Z,95.90
2022-10-12T01:20:52.228Z,95.72
2022-10-12T01:23:52.583Z,95.61
2022-10-12T01:26:55.726Z,96.01
2022-10-12T01:29:39.115Z,96.04
2022-10-12T01:32:14.807Z,95.65
2022-10-12T01:34:49.307Z,96.13
2022-10-12T01:37:22.631Z,96.18
2022-10-12T01:39:54.383Z,96.16
2022-10-12T01:42:28.019Z,96.27
2022-10-12T01:45:03.381Z,96.55
2022-10-12T01:47:33.602Z,96.05
2022-10-12T01:50:03.003Z,96.01
2022-10-12T01:52:33.920Z,95.89
2022-10-12T01:55:18.712Z,95.88
2022-10-12T01:57:59.864Z,95.70
2022-10-12T02:00:27.792Z,96.47
2022-10-12T02:03:06.599Z,95.73
2022-10-12T02:05:39.291Z,95.93
2022-10-12T02:08:14.683Z,96.02
2022-10-12T02:10:48.981Z,96.32
2022-10-12T02:13:21.287Z,96.71
2022-10-12T02:15:50.035Z,96.83
2022-10-12T02:18:22.603Z,96.80
2022-10-12T02:20:54.714Z,96.89
2022-10-12T02:23:25.463Z,97.61
2022-10-12T02:25:54.824Z,96.99
2022-10-12T02:28:25.333Z,97.01
2022-10-12T02:30:58.726Z,96.70
2022-10-12T02:33:33.606Z,96.48
2022-10-12T02:36:06.497Z,96.47
2022-10-12T02:38:37.690Z,96.96
2022-10-12T02:41:10.620Z,97.04
2022-10-12T02:43:43.855Z,97.37
2022-10-12T02:46:12.755Z,96.76
2022-10-12T02:48:43.355Z,97.14
2022-10-12T02:51:12.512Z,97.00
2022-10-12T02:53:41.380Z,96.83
2022-10-12T02:56:13.720Z,97.12
2022-10-12T02:58:44.704Z,97.27
2022-10-12T03:01:13.875Z,97.05
2022-10-12T03:03:43.361Z,97.23
2022-10-12T03:06:11.377Z,97.63
2022-10-12T03:08:39.731Z,97.06
2022-10-12T03:11:09.361Z,97.34
2022-10-12T03:13:37.251Z,97.66
2022-10-12T03:16:05.745Z,97.19
2022-10-12T03:18:34.440Z,96.98
2022-10-12T03:21:04.466Z,97.41
2022-10-12T03:23:32.293Z,96.95
2022-10-12T03:26:00.173Z,96.67
2022-10-12T03:28:28.227Z,96.70
2022-10-12T03:30:56.179Z,96.31
2022-10-12T03:33:24.110Z,96.16
2022-10-12T03:35:52.271Z,95.38
2022-10-12T03:38:21.743Z,95.43
2022-10-12T03:40:49.657Z,95.69
2022-10-12T03:43:18.278Z,95.67
2022-10-12T03:45:46.150Z,96.23
2022-10-12T03:48:14.070Z,96.41
2022-10-12T03:50:41.950Z,96.88
2022-10-12T03:53:09.900Z,97.47
2022-10-12T03:55:39.196Z,97.17
2022-10-12T03:58:07.143Z,97.41
2022-10-12T04:00:35.086Z,97.84
2022-10-12T04:03:03.223Z,97.89
2022-10-12T04:05:31.722Z,98.42
2022-10-12T04:08:00.105Z,98.88
2022-10-12T04:10:28.221Z,98.80
2022-10-12T04:12:57.812Z,98.95
2022-10-12T04:15:25.694Z,98.73
2022-10-12T04:17:54.247Z,98.77
2022-10-12T04:20:22.177Z,98.48
2022-10-12T04:22:50.084Z,98.60
2022-10-12T04:25:18.006Z,98.53
2022-10-12T04:27:45.957Z,98.81
2022-10-12T04:30:15.502Z,99.07
2022-10-12T04:32:43.395Z,99.09
2022-10-12T04:35:11.466Z,98.61
2022-10-12T04:37:39.607Z,98.59
2022-10-12T04:40:08.990Z,99.06
2022-10-12T04:42:36.869Z,98.86
2022-10-12T04:45:05.398Z,98.52
2022-10-12T04:47:36.571Z,98.64
2022-10-12T04:50:05.742Z,98.39
2022-10-12T04:52:33.973Z,99.04
2022-10-12T04:55:01.876Z,98.58
2022-10-12T04:57:30.514Z,98.94
2022-10-12T04:59:58.482Z,99.00
2022-10-12T05:02:26.517Z,98.61
2022-10-12T05:04:55.781Z,98.26
2022-10-12T05:07:23.704Z,98.62
2022-10-12T05:09:51.616Z,98.46
2022-10-12T05:12:19.535Z,98.42
2022-10-12T05:14:47.411Z,98.44
2022-10-12T05:17:15.563Z,98.53
2022-10-12T05:19:43.444Z,98.77
2022-10-12T05:22:12.762Z,98.20
2022-10-12T05:24:40.676Z,98.15
2022-10-12T05:27:08.553Z,98.16
2022-10-12T05:29:36.447Z,98.45
2022-10-12T05:32:04.892Z,97.97
2022-10-12T05:34:32.946Z,98.43
2022-10-12T05:37:01.324Z,98.20
2022-10-12T05:39:30.555Z,98.25
2022-10-12T05:41:58.757Z,98.12
2022-10-12T05:44:26.628Z,98.00
2022-10-12T05:46:54.562Z,98.22
2022-10-12T05:49:22.500Z,97.78
2022-10-12T05:51:50.364Z,97.56
2022-10-12T05:54:18.271Z,97.00
2022-10-12T05:56:47.496Z,97.58
2022-10-12T05:59:15.635Z,97.82
2022-10-12T06:01:43.662Z,97.02
2022-10-12T06:04:12.918Z,97.40
2022-10-12T06:06:40.859Z,97.26
2022-10-12T06:09:09.128Z,97.70
2022-10-12T06:11:37.065Z,97.69
2022-10-12T06:14:06.524Z,97.47
2022-10-12T06:16:34.516Z,96.96
2022-10-12T06:19:02.478Z,97.47
2022-10-12T06:21:34.595Z,97.46
2022-10-12T06:24:03.042Z,97.01
2022-10-12T06:26:31.028Z,96.90
2022-10-12T06:29:00.637Z,97.32
2022-10-12T06:31:30.577Z,97.12
2022-10-12T06:33:58.468Z,96.67
2022-10-12T06:36:26.603Z,97.47
2022-10-12T06:38:54.963Z,97.44
2022-10-12T06:41:22.924Z,97.17
2022-10-12T06:43:50.815Z,97.01
2022-10-12T06:46:18.731Z,96.81
2022-10-12T06:48:48.214Z,97.51
2022-10-12T06:51:16.177Z,96.92
2022-10-12T06:53:44.344Z,97.16
2022-10-12T06:56:13.372Z,97.16
2022-10-12T06:58:41.998Z,97.33
2022-10-12T07:01:11.023Z,97.21
2022-10-12T07:03:39.000Z,97.67
2022-10-12T07:06:11.281Z,97.24
2022-10-12T07:08:41.049Z,96.89
2022-10-12T07:11:10.773Z,96.80
2022-10-12T07:13:38.763Z,97.13
2022-10-12T07:16:06.990Z,96.76
2022-10-12T07:18:35.408Z,96.75
2022-10-12T07:21:03.729Z,97.00
2022-10-12T07:23:34.656Z,96.75
2022-10-12T07:26:02.656Z,96.91
2022-10-12T07:28:30.664Z,97.09
2022-10-12T07:31:01.995Z,96.57
2022-10-12T07:33:33.258Z,96.05
2022-10-12T07:36:21.135Z,96.31
2022-10-12T07:38:50.832Z,95.96
2022-10-12T07:41:19.210Z,95.99
2022-10-12T07:43:47.125Z,95.92
2022-10-12T07:46:15.194Z,95.61
2022-10-12T07:48:47.484Z,95.18
2022-10-12T07:51:18.092Z,95.15
2022-10-12T07:53:46.060Z,94.83
2022-10-12T07:56:16.164Z,95.26
2022-10-12T07:58:44.870Z,95.00
2022-10-12T08:01:12.813Z,94.28
2022-10-12T08:03:40.833Z,93.86
2022-10-12T08:06:13.613Z,93.63
2022-10-12T08:08:41.877Z,93.58
2022-10-12T08:11:10.812Z,93.21
2022-10-12T08:13:40.899Z,92.71
2022-10-12T08:16:12.251Z,92.72
2022-10-12T08:18:40.797Z,91.56
2022-10-12T08:21:10.461Z,90.64
2022-10-12T08:23:38.657Z,91.45
2022-10-12T08:26:07.611Z,91.51
2022-10-12T08:28:36.959Z,91.47
2022-10-12T08:31:11.420Z,89.78
2022-10-12T08:33:40.018Z,89.74
2022-10-12T08:36:09.387Z,89.24
2022-10-12T08:38:39.390Z,89.02
2022-10-12T08:41:39.089Z,88.23
2022-10-12T08:44:28.264Z,88.04
2022-10-12T08:47:01.167Z,89.14
2022-10-12T08:49:32.151Z,88.11
2022-10-12T08:52:04.451Z,87.60
2022-10-12T08:54:39.742Z,87.68
2022-10-12T08:57:16.276Z,87.13
2022-10-12T08:59:44.606Z,87.35
2022-10-12T09:02:32.260Z,86.49
2022-10-12T09:05:02.864Z,86.66
2022-10-12T09:07:34.749Z,85.74
2022-10-12T09:10:16.089Z,85.83
2022-10-12T09:12:51.734Z,85.83
2022-10-12T09:15:23.289Z,86.51
2022-10-12T09:17:54.449Z,86.36
2022-10-12T09:20:24.060Z,86.01
2022-10-12T09:22:54.774Z,85.33
2022-10-12T09:25:25.443Z,86.05
2022-10-12T09:27:53.971Z,85.58
2022-10-12T09:30:22.271Z,85.11
2022-10-12T09:33:04.019Z,85.42
2022-10-12T09:35:31.960Z,85.21
2022-10-12T09:37:59.968Z,84.62
2022-10-12T09:40:30.986Z,85.21
2022-10-12T09:43:00.838Z,85.59
2022-10-12T09:45:30.947Z,85.49
2022-10-12T09:48:21.448Z,85.34
2022-10-12T09:50:53.434Z,84.40
2022-10-12T09:53:32.726Z,84.72
2022-10-12T09:56:07.774Z,83.92
2022-10-12T09:58:44.067Z,83.77
2022-10-12T10:01:21.564Z,82.88
2022-10-12T10:04:06.965Z,83.02
2022-10-12T10:06:35.202Z,84.14
2022-10-12T10:09:03.371Z,84.44
2022-10-12T10:11:32.505Z,82.54
2022-10-12T10:14:02.543Z,83.58
2022-10-12T10:16:32.163Z,83.99
2022-10-12T10:19:03.113Z,82.33
2022-10-12T10:21:34.258Z,82.74
2022-10-12T10:24:03.804Z,82.40
2022-10-12T10:26:51.985Z,82.39
2022-10-12T10:29:32.283Z,82.16
2022-10-12T10:32:24.180Z,81.53
2022-10-12T10:35:08.316Z,81.38
2022-10-12T10:37:36.845Z,81.29
2022-10-12T10:40:06.317Z,80.78
2022-10-12T10:42:35.763Z,80.97
2022-10-12T10:45:07.001Z,80.17
2022-10-12T10:47:42.931Z,79.86
2022-10-12T10:50:26.984Z,79.36
2022-10-12T10:52:58.377Z,80.44
2022-10-12T10:55:32.875Z,79.12
2022-10-12T10:58:13.872Z,79.16
2022-10-12T11:00:45.526Z,79.17
2022-10-12T11:05:58.113Z,78.50
2022-10-12T11:08:27.981Z,79.14
2022-10-12T11:11:00.608Z,78.37
2022-10-12T11:13:35.179Z,77.70
2022-10-12T11:16:09.343Z,77.99
2022-10-12T11:18:44.062Z,76.71
2022-10-12T11:21:19.355Z,77.79
2022-10-12T11:23:52.942Z,76.57
2022-10-12T11:26:27.385Z,76.37
2022-10-12T11:28:58.097Z,76.74
2022-10-12T11:31:31.357Z,78.48
2022-10-12T11:34:03.448Z,75.66
2022-10-12T11:36:35.791Z,77.70
2022-10-12T11:39:07.432Z,76.09
2022-10-12T11:42:09.566Z,76.18
2022-10-12T11:44:41.800Z,77.35
2022-10-12T11:47:17.843Z,76.96
2022-10-12T11:49:52.807Z,75.19
2022-10-12T11:52:28.533Z,76.14
2022-10-12T11:55:08.356Z,77.18
2022-10-12T11:57:39.175Z,76.17
2022-10-12T12:00:18.237Z,77.46
2022-10-12T12:02:52.096Z,77.29
2022-10-12T12:05:20.103Z,76.26
2022-10-12T12:07:51.729Z,77.49
2022-10-12T12:10:45.364Z,77.56
2022-10-12T12:13:23.086Z,75.76
2022-10-12T12:16:31.972Z,75.78
2022-10-12T12:19:32.001Z,77.30
2022-10-12T12:22:36.418Z,77.21
2022-10-12T12:25:18.021Z,77.09
2022-10-12T12:27:49.573Z,76.61
2022-10-12T12:30:38.331Z,75.84
2022-10-12T12:33:27.368Z,75.99
2022-10-12T12:35:58.036Z,76.05
2022-10-12T12:38:33.071Z,75.11
2022-10-12T12:41:08.771Z,75.80
2022-10-12T12:44:02.724Z,75.67
2022-10-12T12:47:26.441Z,75.62
2022-10-12T12:49:56.458Z,75.91
2022-10-12T12:52:29.383Z,75.02
2022-10-12T12:55:18.482Z,74.86
2022-10-12T12:58:03.035Z,74.51
2022-10-12T13:00:39.174Z,75.40
2022-10-12T13:03:34.826Z,74.88
2022-10-12T13:06:38.885Z,74.39
2022-10-12T13:09:35.632Z,75.60
2022-10-12T13:12:32.114Z,75.72
2022-10-12T13:15:25.635Z,75.36
2022-10-12T13:18:45.299Z,74.98
2022-10-12T13:21:16.181Z,75.84
2022-10-12T13:23:48.024Z,75.18
2022-10-12T13:26:22.828Z,75.13
2022-10-12T13:28:51.844Z,74.95
2022-10-12T13:31:24.851Z,74.81
2022-10-12T13:34:00.840Z,76.02
2022-10-12T13:36:31.172Z,74.81
2022-10-12T13:39:01.014Z,75.68
2022-10-12T13:41:31.313Z,75.19
2022-10-12T13:44:01.254Z,75.21
2022-10-12T13:46:42.812Z,75.51
2022-10-12T13:49:15.830Z,75.45
2022-10-12T13:51:45.582Z,75.60
2022-10-12T13:54:19.113Z,75.11
2022-10-12T13:56:50.123Z,76.01
2022-10-12T13:59:22.458Z,75.75
2022-10-12T14:01:55.788Z,75.65
2022-10-12T14:04:27.917Z,75.94
2022-10-12T14:07:04.038Z,75.97
2022-10-12T14:09:41.610Z,75.12
2022-10-12T14:12:11.317Z,74.38
2022-10-12T14:14:41.492Z,75.70
2022-10-12T14:17:15.898Z,75.52
2022-10-12T14:19:46.811Z,75.73
2022-10-12T14:22:21.529Z,75.87
2022-10-12T14:24:50.714Z,75.88
2022-10-12T14:27:24.964Z,75.72
2022-10-12T14:29:57.401Z,76.03
2022-10-12T14:32:44.176Z,75.71
2022-10-12T14:35:23.662Z,76.23
2022-10-12T14:37:53.917Z,76.54
2022-10-12T14:40:38.538Z,76.58
2022-10-12T14:43:21.055Z,77.07
2022-10-12T14:45:49.402Z,76.70
2022-10-12T14:48:22.926Z,77.05
2022-10-12T14:50:51.409Z,76.48
2022-10-12T14:53:19.344Z,76.61
2022-10-12T14:55:50.819Z,76.28
2022-10-12T14:58:21.705Z,76.27
2022-10-12T15:00:49.643Z,76.75
2022-10-12T15:03:20.163Z,77.31
2022-10-12T15:05:48.096Z,77.27
2022-10-12T15:08:15.972Z,77.97
2022-10-12T15:10:44.312Z,78.38
2022-10-12T15:13:14.056Z,78.46
2022-10-12T15:15:44.904Z,77.26
2022-10-12T15:18:12.783Z,77.04
2022-10-12T15:20:46.747Z,77.47
2022-10-12T15:23:17.250Z,77.37
2022-10-12T15:25:48.914Z,77.06
2022-10-12T15:28:17.046Z,76.78
2022-10-12T15:31:11.856Z,77.48
2022-10-12T15:33:33.075Z,77.26
2022-10-12T15:36:03.357Z,77.36
2022-10-12T15:38:31.358Z,77.79
2022-10-12T15:40:59.274Z,77.68
2022-10-12T15:43:27.500Z,77.27
2022-10-12T15:45:56.456Z,77.30
2022-10-12T15:48:24.444Z,77.72
2022-10-12T15:50:52.414Z,77.92
2022-10-12T15:53:24.783Z,77.93
2022-10-12T15:55:53.299Z,77.63
2022-10-12T15:58:21.259Z,77.88
2022-10-12T16:00:49.727Z,77.66
2022-10-12T16:03:25.548Z,77.91
2022-10-12T16:05:54.804Z,78.24
2022-10-12T16:08:24.394Z,79.26
2022-10-12T16:10:52.669Z,79.16
2022-10-12T16:13:20.632Z,79.06
2022-10-12T16:15:48.741Z,78.88
2022-10-12T16:18:17.847Z,79.58
2022-10-12T16:20:49.744Z,80.12
2022-10-12T16:23:28.756Z,80.49
2022-10-12T16:25:57.485Z,80.58
2022-10-12T16:28:26.105Z,81.22
2022-10-12T16:30:54.625Z,81.49
2022-10-12T16:33:22.653Z,80.98
2022-10-12T16:35:50.612Z,82.03
2022-10-12T16:38:20.284Z,82.14
2022-10-12T16:40:50.235Z,82.47
2022-10-12T16:43:19.433Z,83.01
2022-10-12T16:45:56.016Z,83.55
2022-10-12T16:48:23.961Z,83.42
2022-10-12T16:50:51.880Z,83.66
2022-10-12T16:53:19.763Z,83.21
2022-10-12T16:55:49.192Z,83.74
2022-10-12T16:58:17.040Z,84.32
2022-10-12T17:00:45.037Z,84.70
2022-10-12T17:03:14.023Z,84.95
2022-10-12T17:05:42.593Z,85.45
2022-10-12T17:08:14.974Z,85.71
2022-10-12T17:10:43.950Z,85.96
2022-10-12T17:13:14.392Z,85.84
2022-10-12T17:15:43.134Z,86.22
2022-10-12T17:18:11.753Z,86.62
2022-10-12T17:20:39.715Z,86.68
2022-10-12T17:23:07.683Z,86.83
2022-10-12T17:25:35.590Z,87.12
2022-10-12T17:28:03.417Z,87.15
2022-10-12T17:30:33.298Z,87.26
2022-10-12T17:33:01.206Z,87.32
2022-10-12T17:35:29.096Z,87.59
2022-10-12T17:37:56.919Z,87.38
2022-10-12T17:40:24.821Z,87.56
2022-10-12T17:42:52.682Z,88.36
2022-10-12T17:45:20.603Z,88.33
2022-10-12T17:47:50.618Z,88.03
2022-10-12T17:50:18.724Z,87.97
2022-10-12T17:52:46.705Z,88.41
2022-10-12T17:55:36.230Z,88.85
2022-10-12T17:58:03.163Z,88.57
2022-10-12T18:00:31.361Z,88.50
2022-10-12T18:03:00.832Z,88.33
2022-10-12T18:05:28.712Z,88.72
2022-10-12T18:07:56.613Z,89.01
2022-10-12T18:10:27.673Z,89.11
2022-10-12T18:12:56.589Z,88.72
2022-10-12T18:15:24.461Z,88.75
2022-10-12T18:17:52.357Z,88.88
2022-10-12T18:20:21.729Z,89.31
2022-10-12T18:22:49.705Z,89.12
2022-10-12T18:25:17.756Z,89.27
2022-10-12T18:27:46.953Z,89.15
2022-10-12T18:30:15.039Z,89.25
2022-10-12T18:32:43.051Z,88.72
2022-10-12T18:35:10.987Z,89.76
2022-10-12T18:37:41.020Z,89.23
2022-10-12T18:40:10.638Z,89.45
2022-10-12T18:42:38.521Z,89.45
2022-10-12T18:45:07.168Z,89.74
2022-10-12T18:47:36.264Z,89.03
2022-10-12T18:50:04.925Z,90.10
2022-10-12T18:52:32.868Z,89.24
2022-10-12T18:55:02.314Z,89.67
2022-10-12T18:57:32.781Z,89.21
2022-10-12T19:00:02.372Z,89.37
2022-10-12T19:02:30.285Z,89.65
2022-10-12T19:04:58.236Z,89.60
2022-10-12T19:07:26.405Z,89.36
2022-10-12T19:09:54.355Z,89.38
2022-10-12T19:12:45.653Z,89.82
2022-10-12T19:15:13.928Z,89.87
2022-10-12T19:17:41.828Z,90.25
2022-10-12T19:20:10.456Z,89.78
2022-10-12T19:22:38.375Z,89.73
2022-10-12T19:25:07.354Z,89.69
2022-10-12T19:27:35.234Z,89.41
2022-10-12T19:30:05.486Z,89.05
2022-10-12T19:32:34.804Z,89.79
2022-10-12T19:35:02.737Z,90.00
2022-10-12T19:37:30.747Z,89.38
2022-10-12T19:39:58.651Z,90.36
2022-10-12T19:42:26.588Z,89.73
2022-10-12T19:44:54.406Z,90.39
2022-10-12T19:47:23.778Z,90.71
2022-10-12T19:49:51.910Z,89.88
2022-10-12T19:52:20.176Z,90.36
2022-10-12T19:54:48.470Z,90.78
2022-10-12T19:57:16.393Z,90.01
2022-10-12T19:59:44.290Z,90.01
2022-10-12T20:02:12.583Z,90.30
2022-10-12T20:04:41.953Z,89.70
2022-10-12T20:07:09.852Z,89.81
2022-10-12T20:09:37.747Z,90.09
2022-10-12T20:12:05.633Z,90.09
2022-10-12T20:14:33.526Z,90.40
2022-10-12T20:17:01.413Z,90.69
2022-10-12T20:19:29.298Z,90.20
2022-10-12T20:21:58.525Z,90.64
2022-10-12T20:24:26.479Z,90.77
2022-10-12T20:26:54.346Z,90.93
2022-10-12T20:29:22.203Z,91.33
2022-10-12T20:31:50.103Z,91.30
2022-10-12T20:34:17.919Z,91.42
2022-10-12T20:36:48.238Z,91.55
2022-10-12T20:39:18.270Z,92.05
2022-10-12T20:41:47.010Z,92.10
2022-10-12T20:44:14.858Z,91.58
2022-10-12T20:46:55.850Z,90.94
2022-10-12T20:49:24.175Z,90.80
2022-10-12T20:51:52.320Z,90.52
2022-10-12T20:54:22.932Z,91.47
2022-10-12T20:56:52.001Z,91.04
2022-10-12T20:59:20.136Z,90.79
2022-10-12T21:01:48.505Z,90.99
2022-10-12T21:04:16.401Z,91.15
2022-10-12T21:06:44.317Z,90.84
2022-10-12T21:09:14.513Z,91.11
2022-10-12T21:11:44.534Z,91.09
2022-10-12T21:14:13.134Z,91.38
2022-10-12T21:16:41.094Z,91.13
2022-10-12T21:19:09.404Z,91.75
2022-10-12T21:21:37.296Z,91.81
2022-10-12T21:24:05.657Z,92.13
2022-10-12T21:26:34.182Z,92.56
2022-10-12T21:29:03.553Z,92.32
2022-10-12T21:31:32.798Z,92.36
2022-10-12T21:34:01.787Z,92.83
2022-10-12T21:36:31.199Z,91.99
2022-10-12T21:38:59.239Z,91.76
2022-10-12T21:41:29.110Z,91.96
2022-10-12T21:43:58.338Z,92.46
2022-10-12T21:46:29.611Z,92.77
2022-10-12T21:48:58.670Z,91.97
2022-10-12T21:51:28.380Z,92.06
2022-10-12T21:53:56.410Z,92.17
2022-10-12T21:56:26.483Z,92.03
2022-10-12T21:58:57.360Z,92.61
2022-10-12T22:01:31.567Z,92.09
2022-10-12T22:04:01.028Z,91.84
2022-10-12T22:06:30.469Z,91.55
2022-10-12T22:09:03.589Z,92.37
2022-10-12T22:11:33.156Z,91.92
2022-10-12T22:14:03.479Z,91.89
2022-10-12T22:16:33.250Z,91.37
2022-10-12T22:19:02.908Z,91.88
2022-10-12T22:21:34.716Z,91.94
2022-10-12T22:24:02.740Z,91.94
2022-10-12T22:26:30.843Z,92.02
2022-10-12T22:28:59.167Z,91.85
2022-10-12T22:31:28.028Z,92.05
2022-10-12T22:33:58.028Z,91.97
2022-10-12T22:36:26.000Z,92.07
2022-10-12T22:38:53.885Z,93.60
2022-10-12T22:41:23.678Z,93.85
2022-10-12T22:43:55.205Z,93.55
2022-10-12T22:46:24.516Z,92.87
2022-10-12T22:48:52.947Z,92.62
2022-10-12T22:51:29.994Z,92.13
2022-10-12T22:53:58.221Z,92.22
2022-10-12T22:56:26.171Z,91.92
2022-10-12T22:58:57.925Z,91.74
2022-10-12T23:01:26.943Z,92.55
2022-10-12T23:03:56.418Z,92.98
2022-10-12T23:06:26.144Z,92.37
2022-10-12T23:08:54.066Z,92.29
2022-10-12T23:11:24.193Z,91.75
2022-10-12T23:13:52.182Z,91.88
2022-10-12T23:16:22.910Z,91.75
2022-10-12T23:18:58.839Z,92.89
2022-10-12T23:21:30.149Z,91.96
2022-10-12T23:23:59.389Z,92.77
2022-10-12T23:26:28.804Z,92.38
2022-10-12T23:28:57.253Z,92.28
2022-10-12T23:31:27.634Z,92.38
2022-10-12T23:33:56.941Z,93.30
2022-10-12T23:36:24.918Z,93.69
2022-10-12T23:38:54.544Z,94.07
2022-10-12T23:41:22.978Z,94.96
2022-10-12T23:43:50.945Z,95.61
2022-10-12T23:46:18.849Z,95.98
2022-10-12T23:48:46.782Z,98.13
2022-10-12T23:51:14.896Z,98.58
2022-10-12T23:53:42.989Z,98.70
2022-10-12T23:56:12.396Z,98.67
2022-10-12T23:58:40.759Z,98.95
